Time;durP1;ratioP1;P1;durP2;ratioP2;P2;SDS_P1;SDS_P2;PMS_P1;PMS_P2;Temp;Humidity;BMP_temperature;BMP_pressure;BME280_temperature;BME280_humidity;BME280_pressure;Samples;Min_cycle;Max_cycle;Signal;HPM_P1;HPM_P2
2023/09/22 00:00:15;;;;;;;2.00;1.00;;;;;;;17.13;75.44;98414.95;106498;1270;22525;-58
2023/09/22 00:03:05;;;;;;;3.40;0.90;;;;;;;17.10;75.59;98412.94;106462;1273;99445;-59
2023/09/22 00:05:35;;;;;;;1.90;1.00;;;;;;;17.09;75.80;98411.14;106950;1270;22826;-58
2023/09/22 00:08:04;;;;;;;2.10;1.70;;;;;;;17.06;75.86;98411.94;106407;1273;99186;-59
2023/09/22 00:10:33;;;;;;;6.10;1.80;;;;;;;17.04;76.00;98405.84;106460;1270;22528;-58
2023/09/22 00:13:02;;;;;;;1.40;0.90;;;;;;;17.00;76.11;98407.75;106567;1269;22556;-58
2023/09/22 00:15:31;;;;;;;1.60;0.80;;;;;;;17.01;76.36;98402.75;106489;1270;99313;-58
2023/09/22 00:18:00;;;;;;;3.90;0.90;;;;;;;17.00;76.33;98401.04;106639;1273;25400;-58
2023/09/22 00:20:30;;;;;;;1.60;0.80;;;;;;;16.98;76.33;98393.89;106582;1270;99206;-59
2023/09/22 00:22:59;;;;;;;2.30;1.20;;;;;;;16.96;76.62;98392.86;106733;1271;22656;-59
2023/09/22 00:25:28;;;;;;;1.90;1.10;;;;;;;16.93;76.66;98388.56;106660;1265;22582;-58
2023/09/22 00:27:56;;;;;;;2.20;0.90;;;;;;;16.87;76.80;98382.50;106465;1270;98797;-58
2023/09/22 00:30:26;;;;;;;1.50;0.80;;;;;;;16.84;76.81;98378.23;106620;1271;25357;-58
2023/09/22 00:32:55;;;;;;;2.10;1.00;;;;;;;16.83;76.86;98378.23;106715;1266;98949;-58
2023/09/22 00:35:24;;;;;;;1.20;0.80;;;;;;;16.82;77.04;98373.44;106616;1274;22555;-58
2023/09/22 00:37:52;;;;;;;1.70;1.20;;;;;;;16.81;77.27;98369.30;106352;1264;22598;-59
2023/09/22 00:40:21;;;;;;;1.20;0.80;;;;;;;16.81;77.37;98366.20;106508;1270;99326;-58
2023/09/22 00:43:09;;;;;;;2.50;1.30;;;;;;;16.77;77.48;98364.15;107049;1269;24046;-58
2023/09/22 00:45:43;;;;;;;1.60;0.80;;;;;;;16.73;77.58;98366.80;106497;1271;99960;-59
2023/09/22 00:48:20;;;;;;;1.70;1.00;;;;;;;16.73;77.81;98356.98;106596;1273;25452;-59
2023/09/22 00:50:50;;;;;;;3.50;1.20;;;;;;;16.75;78.20;98357.65;106776;1270;100055;-58
2023/09/22 00:53:19;;;;;;;1.70;1.00;;;;;;;16.75;78.19;98354.52;106502;1272;22681;-57
2023/09/22 00:55:49;;;;;;;1.70;1.20;;;;;;;16.74;78.42;98353.89;106562;1270;25243;-57
2023/09/22 00:58:19;;;;;;;1.70;0.90;;;;;;;16.73;78.52;98351.15;106600;1270;100600;-58
2023/09/22 01:00:49;;;;;;;4.30;1.10;;;;;;;16.71;78.57;98354.17;106567;1270;23960;-59
2023/09/22 01:03:19;;;;;;;2.00;1.00;;;;;;;16.69;78.86;98349.42;106551;1270;99504;-59
2023/09/22 01:05:48;;;;;;;1.70;1.10;;;;;;;16.65;78.91;98352.68;106637;1270;24388;-59
2023/09/22 01:08:18;;;;;;;1.30;0.80;;;;;;;16.63;79.02;98355.15;106690;1264;100002;-58
2023/09/22 01:10:47;;;;;;;2.90;1.30;;;;;;;16.64;79.45;98347.69;106880;1258;22658;-59
2023/09/22 01:13:15;;;;;;;1.30;0.80;;;;;;;16.65;79.56;98346.66;106651;1270;25294;-58
2023/09/22 01:15:44;;;;;;;1.70;0.90;;;;;;;16.63;79.56;98346.39;106495;1270;98686;-58
2023/09/22 01:18:13;;;;;;;4.60;1.00;;;;;;;16.61;79.75;98340.44;106661;1270;22528;-59
2023/09/22 01:20:45;;;;;;;3.20;1.30;;;;;;;16.59;79.91;98344.67;106616;1270;99579;-58
2023/09/22 01:23:13;;;;;;;2.10;1.10;;;;;;;16.56;80.12;98337.88;106598;1269;22544;-58
2023/09/22 01:25:43;;;;;;;3.00;1.00;;;;;;;16.52;80.15;98334.43;106462;1273;25363;-58
2023/09/22 01:28:12;;;;;;;3.10;1.10;;;;;;;16.50;80.41;98334.21;106693;1269;98982;-58
2023/09/22 01:30:42;;;;;;;2.50;0.90;;;;;;;16.50;80.46;98332.48;106620;1269;22528;-58
2023/09/22 01:33:11;;;;;;;1.50;1.00;;;;;;;16.50;80.71;98333.70;106632;1270;98894;-59
2023/09/22 01:35:39;;;;;;;0.90;0.90;;;;;;;16.49;81.00;98337.55;107097;1270;22569;-58
2023/09/22 01:38:26;;;;;;;2.50;1.20;;;;;;;16.44;81.04;98334.81;106543;1269;99988;-58
2023/09/22 01:40:54;;;;;;;1.40;0.90;;;;;;;16.43;81.35;98330.48;106620;1270;25342;-58
2023/09/22 01:43:23;;;;;;;3.80;1.60;;;;;;;16.40;81.32;98323.26;106695;1270;25373;-58
2023/09/22 01:45:52;;;;;;;2.80;0.90;;;;;;;16.36;81.55;98326.63;106585;1269;99289;-59
2023/09/22 01:48:20;;;;;;;1.30;0.90;;;;;;;16.33;81.72;98331.23;106504;1272;24241;-59
2023/09/22 01:50:49;;;;;;;3.00;1.10;;;;;;;16.32;81.85;98326.75;106696;1269;99425;-59
2023/09/22 01:53:18;;;;;;;3.20;0.90;;;;;;;16.28;81.94;98318.34;106679;1269;23879;-59
2023/09/22 01:55:46;;;;;;;2.10;1.00;;;;;;;16.26;82.20;98312.17;106554;1276;24293;-59
2023/09/22 01:58:15;;;;;;;1.60;0.80;;;;;;;16.24;82.15;98313.45;106583;1270;99215;-59
2023/09/22 02:00:43;;;;;;;1.40;1.10;;;;;;;16.23;82.33;98312.66;106746;1270;22570;-59
2023/09/22 02:03:12;;;;;;;3.30;1.10;;;;;;;16.23;82.39;98305.84;108751;1273;99358;-59
2023/09/22 02:05:42;;;;;;;2.00;1.30;;;;;;;16.23;82.78;98302.84;106590;1270;24264;-59
2023/09/22 02:08:10;;;;;;;3.00;1.70;;;;;;;16.25;82.94;98297.39;106949;1271;100101;-59
2023/09/22 02:10:39;;;;;;;2.00;1.00;;;;;;;16.23;83.09;98294.77;106709;1269;22524;-59
2023/09/22 02:13:09;;;;;;;3.70;1.10;;;;;;;16.23;83.41;98290.57;106815;1270;22545;-59
2023/09/22 02:15:38;;;;;;;2.40;0.90;;;;;;;16.18;83.46;98286.17;106814;1270;99253;-59
2023/09/22 02:18:06;;;;;;;3.40;1.20;;;;;;;16.17;83.85;98281.99;106977;1269;23889;-59
2023/09/22 02:20:35;;;;;;;3.80;1.20;;;;;;;16.16;83.81;98279.47;107905;1269;99165;-59
2023/09/22 02:23:04;;;;;;;4.40;1.30;;;;;;;16.15;84.11;98277.31;106531;1270;22536;-58
2023/09/22 02:25:33;;;;;;;1.40;1.00;;;;;;;16.15;84.12;98272.54;106635;1269;25343;-58
2023/09/22 02:28:02;;;;;;;4.00;1.10;;;;;;;16.13;84.48;98274.34;106270;1272;98737;-59
2023/09/22 02:30:30;;;;;;;2.30;1.40;;;;;;;16.16;84.86;98272.04;106646;1270;22527;-59
2023/09/22 02:32:59;;;;;;;1.60;0.90;;;;;;;16.18;84.75;98272.39;106659;1270;99336;-58
2023/09/22 02:35:28;;;;;;;1.50;0.90;;;;;;;16.15;84.84;98269.91;106848;1269;22541;-59
2023/09/22 02:37:57;;;;;;;2.80;1.10;;;;;;;16.10;84.83;98276.88;106553;1270;25348;-59
2023/09/22 02:40:25;;;;;;;2.20;1.00;;;;;;;16.08;84.96;98270.67;106651;1270;24459;-59
2023/09/22 02:42:54;;;;;;;2.30;1.20;;;;;;;16.06;84.98;98268.44;106639;1269;22653;-58
2023/09/22 02:45:23;;;;;;;3.20;1.00;;;;;;;16.07;85.22;98264.37;106379;1269;99320;-58
2023/09/22 02:47:53;;;;;;;1.60;1.20;;;;;;;16.04;85.15;98266.67;106768;1270;22576;-58
2023/09/22 02:50:21;;;;;;;3.30;1.40;;;;;;;16.04;85.33;98269.75;106415;1268;99477;-59
2023/09/22 02:52:50;;;;;;;1.20;1.00;;;;;;;16.02;85.36;98271.30;106843;1270;25297;-58
2023/09/22 02:55:19;;;;;;;1.50;1.00;;;;;;;16.01;85.41;98277.90;106588;1269;25326;-59
2023/09/22 02:57:48;;;;;;;1.50;1.10;;;;;;;16.00;85.52;98282.40;106824;1270;99386;-59
2023/09/22 03:00:20;;;;;;;4.20;1.70;;;;;;;15.98;85.46;98281.68;106976;1269;22568;-59
2023/09/22 03:02:50;;;;;;;2.50;1.90;;;;;;;15.99;85.48;98277.24;106692;1270;99166;-59
2023/09/22 03:05:19;;;;;;;1.10;1.00;;;;;;;15.97;85.57;98282.45;106748;1269;22517;-58
2023/09/22 03:07:50;;;;;;;2.40;1.20;;;;;;;15.94;85.68;98283.68;106821;1270;22624;-59
2023/09/22 03:10:18;;;;;;;2.60;1.50;;;;;;;15.94;85.84;98286.48;106577;1269;100163;-59
2023/09/22 03:12:53;;;;;;;1.10;0.90;;;;;;;15.92;85.91;98283.27;106939;1270;22524;-58
2023/09/22 03:15:23;;;;;;;1.80;1.20;;;;;;;15.90;85.81;98280.48;106530;1269;99381;-59
2023/09/22 03:17:52;;;;;;;1.50;1.00;;;;;;;15.87;85.77;98279.63;106553;1273;22546;-59
2023/09/22 03:20:21;;;;;;;1.70;1.20;;;;;;;15.87;85.81;98274.74;106452;1270;99090;-58
2023/09/22 03:22:49;;;;;;;2.00;1.00;;;;;;;15.85;85.81;98271.45;106777;1270;22531;-58
2023/09/22 03:25:18;;;;;;;2.10;1.20;;;;;;;15.81;85.86;98268.96;106634;1270;22529;-58
2023/09/22 03:27:47;;;;;;;2.80;1.20;;;;;;;15.79;85.87;98263.73;106639;1263;99357;-58
2023/09/22 03:30:17;;;;;;;1.70;1.00;;;;;;;15.78;85.95;98262.13;106917;1270;24202;-58
2023/09/22 03:32:45;;;;;;;1.40;1.10;;;;;;;15.74;86.02;98260.70;106735;1270;99484;-57
2023/09/22 03:35:15;;;;;;;4.20;2.10;;;;;;;15.71;86.11;98256.80;106586;1269;22535;-59
2023/09/22 03:37:44;;;;;;;1.30;1.10;;;;;;;15.71;86.27;98254.10;106413;1269;22537;-58
2023/09/22 03:40:22;;;;;;;2.70;1.00;;;;;;;15.71;86.18;98252.54;106604;1265;99408;-59
2023/09/22 03:42:51;;;;;;;2.10;1.00;;;;;;;15.71;86.34;98247.98;106686;1270;22583;-59
2023/09/22 03:45:20;;;;;;;1.90;1.30;;;;;;;15.69;86.45;98239.92;106541;1270;99308;-58
2023/09/22 03:47:49;;;;;;;2.10;1.20;;;;;;;15.68;86.54;98239.16;106812;1267;22517;-58
2023/09/22 03:50:18;;;;;;;2.40;1.10;;;;;;;15.65;86.54;98239.36;106452;1262;99010;-58
2023/09/22 03:52:46;;;;;;;3.00;1.50;;;;;;;15.64;86.77;98237.38;106613;1269;24241;-59
2023/09/22 03:55:15;;;;;;;2.90;1.70;;;;;;;15.67;86.99;98236.38;106642;1270;24205;-59
2023/09/22 03:57:43;;;;;;;3.80;1.00;;;;;;;15.64;87.07;98238.59;106556;1270;99810;-59
2023/09/22 04:00:23;;;;;;;2.80;1.30;;;;;;;15.62;87.13;98241.10;106596;1262;26487;-59
2023/09/22 04:02:53;;;;;;;2.20;1.30;;;;;;;15.61;87.31;98237.46;106347;1274;99803;-58
2023/09/22 04:05:22;;;;;;;2.40;1.20;;;;;;;15.62;87.54;98238.45;107022;1270;25284;-58
2023/09/22 04:07:54;;;;;;;2.00;1.10;;;;;;;15.64;87.86;98232.26;106710;1270;22557;-58
2023/09/22 04:10:25;;;;;;;4.60;1.70;;;;;;;15.65;88.01;98233.94;106447;1270;98888;-59
2023/09/22 04:12:54;;;;;;;3.10;1.50;;;;;;;15.62;88.15;98228.64;106762;1271;25115;-58
2023/09/22 04:15:23;;;;;;;2.30;1.40;;;;;;;15.60;88.15;98226.55;106713;1270;100164;-59
2023/09/22 04:17:52;;;;;;;1.50;1.20;;;;;;;15.59;88.27;98228.69;106709;1269;22536;-58
2023/09/22 04:20:28;;;;;;;6.90;1.30;;;;;;;15.59;88.41;98227.20;107552;1269;99481;-59
2023/09/22 04:22:58;;;;;;;1.80;1.20;;;;;;;15.55;88.41;98222.65;106655;1269;24991;-59
2023/09/22 04:25:34;;;;;;;1.80;1.20;;;;;;;15.54;88.49;98220.44;106659;1269;24240;-59
2023/09/22 04:28:11;;;;;;;3.40;1.30;;;;;;;15.54;88.36;98222.69;106509;1272;101524;-58
2023/09/22 04:30:41;;;;;;;1.70;1.20;;;;;;;15.55;88.56;98227.86;106765;1269;24262;-57
2023/09/22 04:33:12;;;;;;;3.20;1.80;;;;;;;15.57;88.71;98230.31;106857;1269;101303;-59
2023/09/22 04:35:41;;;;;;;2.80;1.30;;;;;;;15.57;88.73;98232.98;106789;1265;22980;-59
2023/09/22 04:38:10;;;;;;;1.90;1.40;;;;;;;15.59;88.90;98228.25;107251;1270;99566;-58
2023/09/22 04:40:40;;;;;;;3.60;1.70;;;;;;;15.61;89.04;98229.73;106646;1272;23878;-58
2023/09/22 04:43:08;;;;;;;2.40;1.40;;;;;;;15.63;89.03;98231.71;106630;1269;25293;-58
2023/09/22 04:45:43;;;;;;;2.90;1.60;;;;;;;15.64;89.15;98234.06;106648;1270;101480;-59
2023/09/22 04:48:13;;;;;;;2.20;1.40;;;;;;;15.64;89.04;98235.64;106841;1270;24278;-58
2023/09/22 04:50:42;;;;;;;2.40;1.40;;;;;;;15.64;89.22;98231.75;106813;1270;99599;-58
2023/09/22 04:53:11;;;;;;;3.80;1.40;;;;;;;15.66;89.24;98236.27;106931;1270;24217;-58
2023/09/22 04:55:41;;;;;;;3.40;1.20;;;;;;;15.71;89.40;98238.38;107151;1270;22530;-59
2023/09/22 04:58:14;;;;;;;2.10;1.30;;;;;;;15.75;89.54;98236.52;106749;1269;99197;-59
2023/09/22 05:00:42;;;;;;;2.50;1.20;;;;;;;15.78;89.50;98235.98;106894;1271;24282;-58
2023/09/22 05:03:11;;;;;;;2.40;1.20;;;;;;;15.80;89.48;98228.35;106818;1268;99392;-58
2023/09/22 05:05:41;;;;;;;2.30;1.40;;;;;;;15.82;89.48;98221.48;106875;1269;26570;-59
2023/09/22 05:08:09;;;;;;;1.90;1.20;;;;;;;15.85;89.48;98222.97;106776;1270;99534;-59
2023/09/22 05:10:38;;;;;;;1.90;1.10;;;;;;;15.91;89.68;98223.15;106837;1269;25429;-58
2023/09/22 05:13:06;;;;;;;1.50;1.00;;;;;;;15.98;89.65;98220.61;106667;1269;22528;-58
2023/09/22 05:15:35;;;;;;;2.90;1.40;;;;;;;16.04;89.63;98221.58;106520;1269;99144;-58
2023/09/22 05:18:04;;;;;;;7.00;2.40;;;;;;;16.12;89.62;98223.66;106868;1269;24236;-58
2023/09/22 05:20:33;;;;;;;2.50;1.30;;;;;;;16.20;89.64;98218.84;106596;1269;99184;-59
2023/09/22 05:23:03;;;;;;;6.50;1.50;;;;;;;16.28;89.59;98217.05;106818;1270;23193;-59
2023/09/22 05:25:33;;;;;;;3.20;1.10;;;;;;;16.38;89.63;98217.85;106591;1269;355865;-54
2023/09/22 05:28:02;;;;;;;2.00;1.40;;;;;;;16.50;89.67;98221.34;106745;1270;99875;-59
2023/09/22 05:30:31;;;;;;;1.40;1.10;;;;;;;16.60;89.62;98221.37;106640;1269;23005;-62
2023/09/22 05:33:00;;;;;;;1.80;1.30;;;;;;;16.71;89.56;98222.55;106419;1272;101498;-61
2023/09/22 05:35:29;;;;;;;2.20;1.60;;;;;;;16.85;89.61;98222.38;106710;1269;26326;-57
2023/09/22 05:37:58;;;;;;;2.10;1.30;;;;;;;16.97;89.59;98231.55;106658;1270;22526;-58
2023/09/22 05:40:27;;;;;;;2.30;1.50;;;;;;;17.11;89.60;98233.87;106742;1269;23019;-56
2023/09/22 05:42:56;;;;;;;2.40;1.40;;;;;;;17.26;89.62;98239.61;106706;1269;22530;-57
2023/09/22 05:45:26;;;;;;;1.80;1.40;;;;;;;17.40;89.38;98231.61;106601;1270;99369;-57
2023/09/22 05:47:54;;;;;;;3.90;1.60;;;;;;;17.53;89.17;98230.60;106783;1269;22554;-54
2023/09/22 05:50:23;;;;;;;3.60;1.30;;;;;;;17.65;88.94;98228.52;106637;1269;99579;-53
2023/09/22 05:52:52;;;;;;;2.80;1.20;;;;;;;17.76;88.62;98230.15;106849;1270;24211;-59
2023/09/22 05:55:22;;;;;;;2.40;1.40;;;;;;;17.86;88.40;98232.94;106640;1272;22629;-57
2023/09/22 05:57:50;;;;;;;2.50;1.40;;;;;;;17.95;88.26;98217.80;107002;1269;99434;-57
2023/09/22 06:00:19;;;;;;;3.00;1.60;;;;;;;17.98;87.76;98219.80;107053;1270;22717;-56
2023/09/22 06:02:49;;;;;;;3.70;2.00;;;;;;;17.97;87.17;98221.10;106623;1270;99180;-55
2023/09/22 06:05:23;;;;;;;4.40;1.60;;;;;;;17.97;86.81;98226.39;106987;1271;22527;-58
2023/09/22 06:07:52;;;;;;;3.00;1.80;;;;;;;18.06;86.60;98223.73;106426;1275;24370;-60
2023/09/22 06:10:20;;;;;;;3.30;1.60;;;;;;;18.20;86.28;98221.45;106622;1270;98564;-61
2023/09/22 06:12:49;;;;;;;4.40;1.90;;;;;;;18.31;85.92;98223.65;106643;1270;24070;-58
2023/09/22 06:15:18;;;;;;;2.90;1.90;;;;;;;18.46;85.62;98223.14;106505;1270;98913;-52
2023/09/22 06:17:48;;;;;;;1.90;1.30;;;;;;;18.58;85.12;98224.19;106600;1269;22640;-50
2023/09/22 06:20:17;;;;;;;2.50;1.30;;;;;;;18.73;84.84;98226.50;106465;1253;100441;-59
2023/09/22 06:22:50;;;;;;;2.20;1.30;;;;;;;18.86;84.54;98227.05;106554;1269;22570;-62
2023/09/22 06:25:19;;;;;;;2.50;1.60;;;;;;;18.99;84.26;98232.38;106616;1261;25262;-57
2023/09/22 06:27:50;;;;;;;2.50;1.20;;;;;;;19.13;83.84;98236.63;106581;1270;98936;-57
2023/09/22 06:30:21;;;;;;;3.20;2.00;;;;;;;19.24;83.10;98240.85;106609;1269;22846;-61
2023/09/22 06:32:50;;;;;;;2.20;1.30;;;;;;;19.38;82.86;98245.49;106705;1271;99574;-59
2023/09/22 06:35:18;;;;;;;3.20;1.70;;;;;;;19.58;82.67;98244.88;106979;1269;23001;-61
2023/09/22 06:37:49;;;;;;;2.70;1.50;;;;;;;19.75;81.92;98252.34;106572;1269;22674;-57
2023/09/22 06:40:18;;;;;;;5.60;1.40;;;;;;;19.90;81.45;98254.40;106763;1269;99277;-62
2023/09/22 06:42:47;;;;;;;2.60;1.50;;;;;;;20.04;81.28;98256.41;106607;1270;22645;-61
2023/09/22 06:45:16;;;;;;;5.90;2.50;;;;;;;20.12;80.70;98265.60;106980;1269;100700;-63
2023/09/22 06:47:45;;;;;;;2.60;1.60;;;;;;;20.15;79.91;98263.15;106809;1269;25426;-60
2023/09/22 06:50:15;;;;;;;3.50;1.50;;;;;;;20.24;79.61;98257.35;106953;1269;98933;-61
2023/09/22 06:52:43;;;;;;;1.70;1.40;;;;;;;20.47;79.51;98254.50;106636;1269;22747;-61
2023/09/22 06:55:14;;;;;;;4.30;1.70;;;;;;;20.89;79.44;98265.48;106588;1270;24036;-60
2023/09/22 06:57:44;;;;;;;2.70;1.00;;;;;;;21.10;77.76;98270.29;106482;1258;99006;-62
2023/09/22 07:00:22;;;;;;;4.10;1.60;;;;;;;21.05;76.48;98265.48;106809;1270;22642;-60
2023/09/22 07:02:51;;;;;;;2.00;1.30;;;;;;;21.06;76.29;98267.30;106540;1269;98805;-59
2023/09/22 07:05:20;;;;;;;1.50;1.10;;;;;;;21.04;75.62;98265.85;106771;1269;22672;-59
2023/09/22 07:07:54;;;;;;;1.80;1.20;;;;;;;21.08;75.22;98266.02;107080;1269;22546;-59
2023/09/22 07:11:08;;;;;;;2.60;1.40;;;;;;;21.16;74.55;98267.80;106416;1270;25638;-59
2023/09/22 07:13:40;;;;;;;2.00;1.40;;;;;;;21.22;74.10;98262.33;106644;1253;22516;-60
2023/09/22 07:16:10;;;;;;;1.80;1.10;;;;;;;21.70;74.27;98265.17;106550;1269;99016;-60
2023/09/22 07:18:39;;;;;;;2.00;1.20;;;;;;;22.18;73.72;98267.80;106759;1265;23914;-59
2023/09/22 07:21:09;;;;;;;4.40;1.30;;;;;;;22.50;72.88;98270.92;106565;1269;98835;-60
2023/09/22 07:23:38;;;;;;;2.10;1.60;;;;;;;22.51;71.67;98264.02;106670;1272;22535;-59
2023/09/22 07:26:11;;;;;;;1.70;1.20;;;;;;;22.43;71.01;98260.20;106779;1269;99160;-59
2023/09/22 07:28:41;;;;;;;2.80;1.40;;;;;;;22.40;70.36;98265.09;106627;1272;25523;-60
2023/09/22 07:31:18;;;;;;;4.40;1.80;;;;;;;22.47;69.71;98261.52;106863;1269;24210;-59
2023/09/22 07:33:47;;;;;;;4.20;1.30;;;;;;;22.49;68.85;98254.52;106659;1269;101281;-59
2023/09/22 07:36:16;;;;;;;3.30;1.30;;;;;;;22.59;68.37;98250.61;106852;1270;22527;-60
2023/09/22 07:38:45;;;;;;;2.70;1.20;;;;;;;22.80;68.09;98256.33;106561;1269;99505;-61
2023/09/22 07:41:14;;;;;;;2.10;1.30;;;;;;;23.11;68.26;98259.05;106625;1269;25382;-59
2023/09/22 07:43:43;;;;;;;6.00;1.30;;;;;;;23.67;68.45;98260.88;106848;1269;23878;-58
2023/09/22 07:46:12;;;;;;;2.80;1.60;;;;;;;24.68;68.78;98252.52;106869;1267;98894;-58
2023/09/22 07:48:41;;;;;;;2.40;1.20;;;;;;;25.47;67.09;98253.33;106686;1269;24201;-58
2023/09/22 07:51:11;;;;;;;2.80;1.30;;;;;;;25.56;65.64;98250.59;106442;1269;99639;-55
2023/09/22 07:53:39;;;;;;;3.10;1.30;;;;;;;25.90;65.61;98253.40;106751;1269;22522;-58
2023/09/22 07:56:12;;;;;;;2.20;1.20;;;;;;;26.27;64.86;98253.29;106582;1269;99142;-61
2023/09/22 07:58:41;;;;;;;1.90;1.10;;;;;;;26.67;64.46;98260.24;106680;1269;25349;-61
2023/09/22 08:01:16;;;;;;;2.10;1.60;;;;;;;27.32;64.04;98256.69;106647;1265;22512;-54
2023/09/22 08:03:45;;;;;;;3.10;1.60;;;;;;;28.28;64.48;98263.20;106762;1269;98743;-60
2023/09/22 08:06:14;;;;;;;1.50;1.10;;;;;;;29.10;62.57;98270.16;106719;1269;25370;-60
2023/09/22 08:08:44;;;;;;;2.40;1.10;;;;;;;30.16;62.00;98270.63;106743;1270;99957;-60
2023/09/22 08:11:12;;;;;;;1.40;1.00;;;;;;;30.76;61.03;98269.33;106649;1269;25336;-61
2023/09/22 08:13:41;;;;;;;2.20;1.00;;;;;;;31.10;60.15;98272.29;106658;1269;25352;-60
2023/09/22 08:16:10;;;;;;;4.40;1.70;;;;;;;30.77;57.62;98272.21;109668;1269;99304;-63
2023/09/22 08:18:40;;;;;;;3.70;1.30;;;;;;;30.00;55.81;98274.93;106650;1269;22527;-60
2023/09/22 08:21:09;;;;;;;1.50;1.00;;;;;;;29.71;55.39;98272.33;106843;1265;99374;-56
2023/09/22 08:23:38;;;;;;;3.50;1.30;;;;;;;31.00;55.76;98268.23;106727;1270;25411;-58
2023/09/22 08:26:18;;;;;;;3.00;1.50;;;;;;;32.65;54.87;98269.60;106617;1270;99586;-60
2023/09/22 08:28:47;;;;;;;4.20;1.80;;;;;;;34.19;52.74;98277.33;107401;1269;24186;-62
2023/09/22 08:31:16;;;;;;;2.50;1.40;;;;;;;34.86;49.56;98279.02;106598;1269;25336;-61
2023/09/22 08:33:45;;;;;;;8.40;1.80;;;;;;;35.47;47.35;98278.73;106664;1269;98893;-62
2023/09/22 08:36:15;;;;;;;1.40;1.00;;;;;;;35.49;42.51;98278.55;106796;1269;22619;-60
2023/09/22 08:38:47;;;;;;;3.90;1.50;;;;;;;36.08;43.37;98281.67;106612;1269;99471;-62
2023/09/22 08:41:15;;;;;;;1.80;1.20;;;;;;;37.30;42.46;98282.36;106967;1269;22535;-60
2023/09/22 08:43:47;;;;;;;3.50;1.20;;;;;;;38.29;41.22;98278.73;106530;1269;22761;-61
2023/09/22 08:46:16;;;;;;;3.30;1.20;;;;;;;39.14;38.88;98274.45;106831;1269;99313;-61
2023/09/22 08:48:46;;;;;;;2.60;1.50;;;;;;;40.10;38.60;98267.08;106457;1269;25471;-61
2023/09/22 08:51:15;;;;;;;2.90;1.30;;;;;;;41.11;37.62;98270.20;106527;1269;99308;-63
2023/09/22 08:53:44;;;;;;;2.40;1.10;;;;;;;41.11;34.72;98270.68;106636;1269;24272;-61
2023/09/22 08:56:14;;;;;;;2.70;1.20;;;;;;;40.26;32.60;98254.92;106993;1269;101090;-61
2023/09/22 08:58:42;;;;;;;5.70;2.30;;;;;;;38.04;30.75;98256.45;107379;1271;22525;-61
2023/09/22 09:01:12;;;;;;;2.60;1.10;;;;;;;35.87;30.66;98255.89;106941;1269;25450;-57
2023/09/22 09:03:41;;;;;;;1.60;1.10;;;;;;;34.02;31.10;98255.64;106722;1269;100009;-61
2023/09/22 09:06:14;;;;;;;2.10;0.90;;;;;;;32.65;31.58;98259.77;106796;1269;24004;-61
2023/09/22 09:09:03;;;;;;;2.10;1.20;;;;;;;31.40;31.48;98268.30;106515;1270;99310;-62
2023/09/22 09:11:32;;;;;;;3.60;1.10;;;;;;;29.93;32.48;98277.78;106683;1269;23893;-61
2023/09/22 09:14:20;;;;;;;2.10;1.10;;;;;;;28.99;32.88;98277.33;106763;1270;22470;-61
2023/09/22 09:16:49;;;;;;;7.00;1.50;;;;;;;28.03;33.69;98277.77;106719;1270;24256;-63
2023/09/22 09:19:20;;;;;;;13.00;1.50;;;;;;;27.36;34.51;98293.11;106520;1270;25420;-61
2023/09/22 09:22:06;;;;;;;5.80;1.30;;;;;;;26.65;35.76;98297.36;106598;1270;99576;-59
2023/09/22 09:24:35;;;;;;;5.30;2.10;;;;;;;26.53;36.96;98298.40;106924;1269;22530;-62
2023/09/22 09:27:17;;;;;;;3.00;1.20;;;;;;;27.18;37.72;98308.61;106740;1265;99425;-61
2023/09/22 09:29:47;;;;;;;3.00;1.20;;;;;;;29.60;38.78;98305.37;106807;1269;23479;-61
2023/09/22 09:32:26;;;;;;;1.60;1.20;;;;;;;32.55;38.79;98304.87;106705;1269;99552;-58
2023/09/22 09:34:55;;;;;;;2.90;1.30;;;;;;;35.77;38.69;98301.89;106707;1269;24261;-64
2023/09/22 09:37:26;;;;;;;2.30;1.30;;;;;;;38.06;37.75;98296.11;106718;1270;26530;-64
2023/09/22 09:39:58;;;;;;;2.10;1.40;;;;;;;39.21;35.87;98283.89;106558;1269;99739;-60
2023/09/22 09:42:27;;;;;;;3.70;1.10;;;;;;;40.03;34.40;98279.83;106597;1269;22542;-61
2023/09/22 09:44:57;;;;;;;1.90;1.00;;;;;;;40.99;33.28;98281.28;106697;1265;101533;-68
2023/09/22 09:47:34;;;;;;;5.90;1.60;;;;;;;42.57;33.07;98281.27;106485;1269;22682;-62
2023/09/22 09:50:09;;;;;;;2.50;0.90;;;;;;;43.56;31.43;98279.08;106602;1270;23567;-67
2023/09/22 09:52:49;;;;;;;2.90;0.90;;;;;;;44.56;31.03;98280.75;106631;1269;23013;-60
2023/09/22 09:55:20;;;;;;;4.20;1.00;;;;;;;45.79;29.84;98282.56;106797;1269;24033;-67
2023/09/22 09:57:52;;;;;;;2.20;1.20;;;;;;;45.58;27.72;98275.92;106784;1269;99322;-62
2023/09/22 10:00:21;;;;;;;2.10;1.20;;;;;;;45.16;25.91;98278.42;107147;1270;23918;-66
2023/09/22 10:02:57;;;;;;;5.10;1.20;;;;;;;45.47;25.75;98281.14;106486;1272;99157;-62
2023/09/22 10:05:28;;;;;;;1.50;1.30;;;;;;;46.14;25.14;98271.39;106674;1269;22654;-69
2023/09/22 10:07:59;;;;;;;2.70;1.40;;;;;;;46.68;24.58;98265.36;106756;1269;22536;-68
2023/09/22 10:10:29;;;;;;;4.10;1.60;;;;;;;46.89;22.80;98263.33;106524;1270;98839;-67
2023/09/22 10:12:58;;;;;;;3.70;1.30;;;;;;;45.25;22.11;98252.98;106569;1272;24228;-65
2023/09/22 10:16:05;;;;;;;1.20;0.70;;;;;;;43.02;22.24;98249.29;106533;1272;100003;-68
2023/09/22 10:18:55;;;;;;;1.40;1.00;;;;;;;41.41;22.71;98246.15;106568;1271;22538;-68
2023/09/22 10:21:30;;;;;;;2.50;1.20;;;;;;;40.42;23.00;98247.98;106458;1270;99417;-64
2023/09/22 10:24:16;;;;;;;2.50;1.00;;;;;;;39.43;23.29;98249.94;106670;1270;26592;-66
2023/09/22 10:26:54;;;;;;;2.20;1.20;;;;;;;38.17;23.31;98251.55;106710;1256;99402;-64
2023/09/22 10:29:35;;;;;;;2.50;0.90;;;;;;;37.07;24.21;98254.02;106569;1271;22535;-61
2023/09/22 10:32:20;;;;;;;4.00;1.10;;;;;;;37.21;25.05;98254.55;106751;1272;22527;-62
2023/09/22 10:34:55;;;;;;;1.50;1.00;;;;;;;37.35;25.23;98255.34;107055;1270;22536;-62
2023/09/22 10:37:29;;;;;;;3.20;1.10;;;;;;;36.83;25.53;98257.36;106513;1271;22584;-65
2023/09/22 10:40:19;;;;;;;2.70;1.30;;;;;;;36.76;26.21;98254.77;106684;1270;99071;-62
2023/09/22 10:42:50;;;;;;;3.40;1.80;;;;;;;37.49;26.82;98253.93;106634;1267;24213;-58
2023/09/22 10:45:25;;;;;;;2.80;1.40;;;;;;;38.50;26.95;98263.47;106446;1269;99509;-64
2023/09/22 10:47:55;;;;;;;2.40;1.00;;;;;;;40.28;27.16;98256.72;106678;1267;23529;-66
2023/09/22 10:50:33;;;;;;;4.10;1.20;;;;;;;41.80;26.69;98257.67;106438;1270;99561;-63
2023/09/22 10:53:06;;;;;;;4.50;1.30;;;;;;;42.03;25.84;98258.95;106687;1272;24512;-66
2023/09/22 10:55:40;;;;;;;3.20;1.20;;;;;;;41.70;25.35;98259.72;106739;1269;22520;-62
2023/09/22 10:58:12;;;;;;;4.40;1.70;;;;;;;40.21;24.84;98259.80;106480;1271;99393;-61
2023/09/22 11:01:04;;;;;;;1.70;0.70;;;;;;;39.02;25.12;98262.13;106814;1269;22534;-62
2023/09/22 11:03:35;;;;;;;4.20;1.30;;;;;;;37.88;25.27;98265.51;106707;1269;99117;-63
2023/09/22 11:06:06;;;;;;;2.00;1.20;;;;;;;37.13;25.85;98268.27;107179;1272;22686;-63
2023/09/22 11:08:48;;;;;;;2.40;1.00;;;;;;;37.86;26.63;98268.64;106603;1259;99569;-64
2023/09/22 11:11:19;;;;;;;2.70;1.00;;;;;;;39.15;26.26;98270.98;106573;1272;22663;-65
2023/09/22 11:13:56;;;;;;;4.00;1.10;;;;;;;38.25;26.22;98271.31;106558;1269;22543;-62
2023/09/22 11:16:26;;;;;;;2.70;1.40;;;;;;;36.92;26.43;98265.07;106585;1259;98757;-64
2023/09/22 11:19:13;;;;;;;9.80;5.80;;;;;;;35.70;26.90;98275.80;106723;1269;22545;-58
2023/09/22 11:21:46;;;;;;;7.50;5.30;;;;;;;34.64;27.37;98280.21;106409;1269;98901;-58
2023/09/22 11:24:15;;;;;;;6.00;4.00;;;;;;;34.07;27.61;98287.44;106762;1270;22555;-58
2023/09/22 11:26:44;;;;;;;6.30;4.00;;;;;;;34.10;28.37;98293.74;106457;1271;99513;-58
2023/09/22 11:29:16;;;;;;;3.80;2.30;;;;;;;34.57;28.67;98299.00;106889;1272;22467;-58
2023/09/22 11:31:50;;;;;;;4.80;3.10;;;;;;;34.51;28.84;98299.39;106940;1270;22527;-59
2023/09/22 11:34:20;;;;;;;4.40;2.40;;;;;;;33.86;28.76;98296.95;108309;1272;99268;-59
2023/09/22 11:36:54;;;;;;;3.10;1.80;;;;;;;32.75;29.08;98295.52;106666;1272;26204;-59
2023/09/22 11:39:29;;;;;;;3.30;1.70;;;;;;;31.78;29.64;98297.64;106739;1259;98973;-59
2023/09/22 11:41:58;;;;;;;4.80;2.40;;;;;;;31.13;30.47;98304.10;106585;1272;22555;-58